sensor_id;sensor_type;location;lat;lon;timestamp;pressure;altitude;pressure_sealevel;temperature;humidity
79006;BME280;69202;45.498;-73.582;2023-08-12T00:02:14;100165.31;;;22.56;52.56
79006;BME280;69202;45.498;-73.582;2023-08-12T00:04:40;100162.84;;;22.55;52.86
79006;BME280;69202;45.498;-73.582;2023-08-12T00:07:06;100145.94;;;22.37;52.97
79006;BME280;69202;45.498;-73.582;2023-08-12T00:09:32;100216.94;;;22.74;50.92
79006;BME280;69202;45.498;-73.582;2023-08-12T00:11:58;100060.44;;;21.66;51.25
79006;BME280;69202;45.498;-73.582;2023-08-12T00:14:24;100141.31;;;22.33;51.52
79006;BME280;69202;45.498;-73.582;2023-08-12T00:16:50;100092.47;;;21.85;51.78
79006;BME280;69202;45.498;-73.582;2023-08-12T00:19:16;100068.69;;;21.66;51.18
79006;BME280;69202;45.498;-73.582;2023-08-12T00:21:41;100141.88;;;22.01;52.01
79006;BME280;69202;45.498;-73.582;2023-08-12T00:24:07;100149.84;;;22.02;52.00
79006;BME280;69202;45.498;-73.582;2023-08-12T00:26:33;100215.00;;;22.46;53.36
79006;BME280;69202;45.498;-73.582;2023-08-12T00:28:59;100122.72;;;21.85;54.33
79006;BME280;69202;45.498;-73.582;2023-08-12T00:31:25;100123.09;;;21.79;54.47
79006;BME280;69202;45.498;-73.582;2023-08-12T00:33:51;100224.19;;;22.36;53.81
79006;BME280;69202;45.498;-73.582;2023-08-12T00:36:17;100199.56;;;22.21;50.63
79006;BME280;69202;45.498;-73.582;2023-08-12T00:38:42;100108.63;;;21.63;51.24
79006;BME280;69202;45.498;-73.582;2023-08-12T00:41:08;100221.72;;;22.35;52.74
79006;BME280;69202;45.498;-73.582;2023-08-12T00:43:34;100156.28;;;21.87;53.21
79006;BME280;69202;45.498;-73.582;2023-08-12T00:46:00;100135.53;;;21.71;52.80
79006;BME280;69202;45.498;-73.582;2023-08-12T00:48:26;100193.59;;;22.04;50.62
79006;BME280;69202;45.498;-73.582;2023-08-12T00:50:52;100181.66;;;21.84;50.50
79006;BME280;69202;45.498;-73.582;2023-08-12T00:53:18;100224.16;;;22.07;50.01
79006;BME280;69202;45.498;-73.582;2023-08-12T00:55:45;100216.75;;;22.03;52.24
79006;BME280;69202;45.498;-73.582;2023-08-12T00:58:11;100232.75;;;21.96;51.73
79006;BME280;69202;45.498;-73.582;2023-08-12T01:00:37;100214.38;;;21.86;51.57
79006;BME280;69202;45.498;-73.582;2023-08-12T01:03:04;100109.16;;;21.21;50.49
79006;BME280;69202;45.498;-73.582;2023-08-12T01:05:31;100278.59;;;22.21;52.93
79006;BME280;69202;45.498;-73.582;2023-08-12T01:07:57;100224.56;;;21.85;50.18
79006;BME280;69202;45.498;-73.582;2023-08-12T01:10:24;100235.28;;;21.92;50.03
79006;BME280;69202;45.498;-73.582;2023-08-12T01:13:32;100235.59;;;21.85;51.63
79006;BME280;69202;45.498;-73.582;2023-08-12T01:16:03;100219.44;;;21.74;51.17
79006;BME280;69202;45.498;-73.582;2023-08-12T01:18:31;100040.50;;;20.66;49.84
79006;BME280;69202;45.498;-73.582;2023-08-12T01:20:58;100270.41;;;22.05;49.75
79006;BME280;69202;45.498;-73.582;2023-08-12T01:23:24;100218.97;;;21.56;54.83
79006;BME280;69202;45.498;-73.582;2023-08-12T01:25:50;100106.59;;;20.95;52.27
79006;BME280;69202;45.498;-73.582;2023-08-12T01:28:16;100271.94;;;21.82;51.84
79006;BME280;69202;45.498;-73.582;2023-08-12T01:30:55;100297.13;;;22.05;50.08
79006;BME280;69202;45.498;-73.582;2023-08-12T01:33:38;100222.34;;;21.48;49.83
79006;BME280;69202;45.498;-73.582;2023-08-12T01:36:16;100312.31;;;21.97;51.06
79006;BME280;69202;45.498;-73.582;2023-08-12T01:38:44;100266.81;;;21.66;50.07
79006;BME280;69202;45.498;-73.582;2023-08-12T01:41:13;100174.72;;;20.93;51.15
79006;BME280;69202;45.498;-73.582;2023-08-12T01:43:40;100317.88;;;21.87;50.55
79006;BME280;69202;45.498;-73.582;2023-08-12T01:46:07;100257.59;;;21.41;50.92
79006;BME280;69202;45.498;-73.582;2023-08-12T01:48:33;100240.59;;;21.29;54.38
79006;BME280;69202;45.498;-73.582;2023-08-12T01:50:59;100253.50;;;21.39;56.67
79006;BME280;69202;45.498;-73.582;2023-08-12T01:53:25;100327.25;;;21.86;54.89
79006;BME280;69202;45.498;-73.582;2023-08-12T01:55:54;100113.06;;;20.55;54.57
79006;BME280;69202;45.498;-73.582;2023-08-12T01:58:21;100262.22;;;21.46;56.43
79006;BME280;69202;45.498;-73.582;2023-08-12T02:00:47;100133.38;;;20.59;53.45
79006;BME280;69202;45.498;-73.582;2023-08-12T02:03:12;100271.06;;;21.43;53.35
79006;BME280;69202;45.498;-73.582;2023-08-12T02:05:38;100242.53;;;21.18;52.89
79006;BME280;69202;45.498;-73.582;2023-08-12T02:08:06;100264.78;;;21.32;52.89
79006;BME280;69202;45.498;-73.582;2023-08-12T02:10:32;100234.91;;;21.05;52.25
79006;BME280;69202;45.498;-73.582;2023-08-12T02:12:58;100262.28;;;21.25;55.56
79006;BME280;69202;45.498;-73.582;2023-08-12T02:15:24;100256.03;;;21.04;53.99
79006;BME280;69202;45.498;-73.582;2023-08-12T02:17:50;100348.53;;;21.65;52.25
79006;BME280;69202;45.498;-73.582;2023-08-12T02:20:16;100193.53;;;20.66;55.34
79006;BME280;69202;45.498;-73.582;2023-08-12T02:22:42;100160.09;;;20.43;55.62
79006;BME280;69202;45.498;-73.582;2023-08-12T02:25:08;100256.06;;;20.99;55.71
79006;BME280;69202;45.498;-73.582;2023-08-12T02:27:34;100352.69;;;21.63;55.60
79006;BME280;69202;45.498;-73.582;2023-08-12T02:30:00;100304.94;;;21.33;54.84
79006;BME280;69202;45.498;-73.582;2023-08-12T02:32:25;100353.84;;;21.51;55.41
79006;BME280;69202;45.498;-73.582;2023-08-12T02:34:51;100334.06;;;21.34;56.51
79006;BME280;69202;45.498;-73.582;2023-08-12T02:37:17;100394.78;;;21.63;57.35
79006;BME280;69202;45.498;-73.582;2023-08-12T02:39:43;100339.28;;;21.41;55.75
79006;BME280;69202;45.498;-73.582;2023-08-12T02:42:09;100365.09;;;21.55;55.47
79006;BME280;69202;45.498;-73.582;2023-08-12T02:44:35;100162.53;;;20.30;54.86
79006;BME280;69202;45.498;-73.582;2023-08-12T02:47:01;100274.78;;;20.97;54.39
79006;BME280;69202;45.498;-73.582;2023-08-12T02:49:27;100366.47;;;21.57;54.18
79006;BME280;69202;45.498;-73.582;2023-08-12T02:51:53;100226.78;;;20.49;53.37
79006;BME280;69202;45.498;-73.582;2023-08-12T02:54:19;100356.38;;;21.17;53.98
79006;BME280;69202;45.498;-73.582;2023-08-12T02:56:45;100309.69;;;20.92;54.47
79006;BME280;69202;45.498;-73.582;2023-08-12T02:59:11;100311.34;;;20.83;55.69
79006;BME280;69202;45.498;-73.582;2023-08-12T03:01:37;100242.69;;;20.42;55.55
79006;BME280;69202;45.498;-73.582;2023-08-12T03:04:03;100227.91;;;20.23;54.67
79006;BME280;69202;45.498;-73.582;2023-08-12T03:06:29;100226.50;;;20.30;55.43
79006;BME280;69202;45.498;-73.582;2023-08-12T03:08:55;100376.19;;;21.29;55.02
79006;BME280;69202;45.498;-73.582;2023-08-12T03:11:21;100171.63;;;20.05;55.21
79006;BME280;69202;45.498;-73.582;2023-08-12T03:13:47;100394.84;;;21.22;55.23
79006;BME280;69202;45.498;-73.582;2023-08-12T03:16:13;100369.88;;;21.29;55.84
79006;BME280;69202;45.498;-73.582;2023-08-12T03:18:40;100299.28;;;20.73;56.27
79006;BME280;69202;45.498;-73.582;2023-08-12T03:21:07;100337.97;;;21.02;55.62
79006;BME280;69202;45.498;-73.582;2023-08-12T03:23:35;100369.28;;;21.22;56.09
79006;BME280;69202;45.498;-73.582;2023-08-12T03:26:01;100310.03;;;20.65;55.99
79006;BME280;69202;45.498;-73.582;2023-08-12T03:28:27;100377.78;;;21.25;58.62
79006;BME280;69202;45.498;-73.582;2023-08-12T03:30:53;100380.56;;;21.30;56.61
79006;BME280;69202;45.498;-73.582;2023-08-12T03:33:19;100387.47;;;21.28;55.36
79006;BME280;69202;45.498;-73.582;2023-08-12T03:35:46;100315.75;;;20.84;54.30
79006;BME280;69202;45.498;-73.582;2023-08-12T03:38:13;100388.56;;;21.17;55.32
79006;BME280;69202;45.498;-73.582;2023-08-12T03:40:39;100395.16;;;21.11;54.02
79006;BME280;69202;45.498;-73.582;2023-08-12T03:43:05;100388.56;;;21.12;56.59
79006;BME280;69202;45.498;-73.582;2023-08-12T03:45:31;100356.44;;;20.87;57.44
79006;BME280;69202;45.498;-73.582;2023-08-12T03:47:57;100396.53;;;21.08;58.64
79006;BME280;69202;45.498;-73.582;2023-08-12T03:50:23;100370.16;;;20.92;58.81
79006;BME280;69202;45.498;-73.582;2023-08-12T03:52:49;100329.53;;;20.58;55.27
79006;BME280;69202;45.498;-73.582;2023-08-12T03:55:14;100405.34;;;21.05;57.29
79006;BME280;69202;45.498;-73.582;2023-08-12T03:57:43;100355.88;;;20.80;54.90
79006;BME280;69202;45.498;-73.582;2023-08-12T04:00:09;100369.06;;;20.98;58.05
79006;BME280;69202;45.498;-73.582;2023-08-12T04:02:36;100363.56;;;20.88;55.89
79006;BME280;69202;45.498;-73.582;2023-08-12T04:05:02;100300.69;;;20.45;55.64
79006;BME280;69202;45.498;-73.582;2023-08-12T04:07:28;100321.53;;;20.62;54.16
79006;BME280;69202;45.498;-73.582;2023-08-12T04:09:54;100360.28;;;20.75;53.61
79006;BME280;69202;45.498;-73.582;2023-08-12T04:12:20;100398.47;;;20.97;53.65
79006;BME280;69202;45.498;-73.582;2023-08-12T04:14:45;100353.41;;;20.68;54.01
79006;BME280;69202;45.498;-73.582;2023-08-12T04:17:11;100376.47;;;20.72;53.74
79006;BME280;69202;45.498;-73.582;2023-08-12T04:19:37;100444.66;;;21.00;54.09
79006;BME280;69202;45.498;-73.582;2023-08-12T04:22:04;100401.50;;;20.75;56.10
79006;BME280;69202;45.498;-73.582;2023-08-12T04:24:30;100205.06;;;19.56;58.88
79006;BME280;69202;45.498;-73.582;2023-08-12T04:26:56;100429.00;;;20.96;57.89
79006;BME280;69202;45.498;-73.582;2023-08-12T04:29:21;100429.81;;;20.96;54.95
79006;BME280;69202;45.498;-73.582;2023-08-12T04:31:47;100418.00;;;20.96;56.58
79006;BME280;69202;45.498;-73.582;2023-08-12T04:34:13;100412.22;;;20.97;56.67
79006;BME280;69202;45.498;-73.582;2023-08-12T04:36:39;100424.88;;;20.98;56.47
79006;BME280;69202;45.498;-73.582;2023-08-12T04:39:05;100390.22;;;20.82;56.45
79006;BME280;69202;45.498;-73.582;2023-08-12T04:41:31;100412.22;;;20.92;56.18
79006;BME280;69202;45.498;-73.582;2023-08-12T04:43:58;100373.72;;;20.62;55.13
79006;BME280;69202;45.498;-73.582;2023-08-12T04:46:24;100307.78;;;20.36;55.45
79006;BME280;69202;45.498;-73.582;2023-08-12T04:48:50;100201.78;;;19.64;54.19
79006;BME280;69202;45.498;-73.582;2023-08-12T04:51:16;100338.84;;;20.52;54.03
79006;BME280;69202;45.498;-73.582;2023-08-12T04:53:42;100363.31;;;20.59;54.70
79006;BME280;69202;45.498;-73.582;2023-08-12T04:56:07;100396.84;;;20.66;53.74
79006;BME280;69202;45.498;-73.582;2023-08-12T04:58:33;100332.22;;;20.38;53.78
79006;BME280;69202;45.498;-73.582;2023-08-12T05:01:00;100205.91;;;19.62;54.25
79006;BME280;69202;45.498;-73.582;2023-08-12T05:03:26;100286.34;;;20.03;55.79
79006;BME280;69202;45.498;-73.582;2023-08-12T05:05:53;100337.47;;;20.34;55.36
79006;BME280;69202;45.498;-73.582;2023-08-12T05:08:19;100375.97;;;20.65;53.82
79006;BME280;69202;45.498;-73.582;2023-08-12T05:10:47;100388.03;;;20.69;55.33
79006;BME280;69202;45.498;-73.582;2023-08-12T05:13:14;100192.41;;;19.45;54.63
79006;BME280;69202;45.498;-73.582;2023-08-12T05:15:40;100359.19;;;20.56;54.24
79006;BME280;69202;45.498;-73.582;2023-08-12T05:18:06;100385.84;;;20.66;54.49
79006;BME280;69202;45.498;-73.582;2023-08-12T05:20:32;100427.34;;;20.95;57.15
79006;BME280;69202;45.498;-73.582;2023-08-12T05:22:58;100354.25;;;20.43;55.48
79006;BME280;69202;45.498;-73.582;2023-08-12T05:25:24;100413.03;;;20.78;55.47
79006;BME280;69202;45.498;-73.582;2023-08-12T05:27:50;100375.31;;;20.27;55.62
79006;BME280;69202;45.498;-73.582;2023-08-12T05:30:16;100357.19;;;20.21;55.13
79006;BME280;69202;45.498;-73.582;2023-08-12T05:32:42;100241.25;;;19.58;55.24
79006;BME280;69202;45.498;-73.582;2023-08-12T05:35:08;100386.94;;;20.44;55.25
79006;BME280;69202;45.498;-73.582;2023-08-12T05:37:34;100416.06;;;20.56;55.76
79006;BME280;69202;45.498;-73.582;2023-08-12T05:40:00;100381.09;;;20.31;55.57
79006;BME280;69202;45.498;-73.582;2023-08-12T05:42:25;100360.47;;;20.03;55.25
79006;BME280;69202;45.498;-73.582;2023-08-12T05:44:51;100312.88;;;19.67;56.67
79006;BME280;69202;45.498;-73.582;2023-08-12T05:47:17;100377.78;;;20.18;56.30
79006;BME280;69202;45.498;-73.582;2023-08-12T05:49:43;100282.97;;;19.60;57.85
79006;BME280;69202;45.498;-73.582;2023-08-12T05:52:09;100413.78;;;20.32;57.63
79006;BME280;69202;45.498;-73.582;2023-08-12T05:54:35;100279.59;;;19.48;57.45
79006;BME280;69202;45.498;-73.582;2023-08-12T05:57:01;100357.69;;;19.93;57.73
79006;BME280;69202;45.498;-73.582;2023-08-12T05:59:27;100367.56;;;19.94;58.19
79006;BME280;69202;45.498;-73.582;2023-08-12T06:01:53;100403.84;;;20.16;58.12
79006;BME280;69202;45.498;-73.582;2023-08-12T06:04:19;100419.22;;;20.17;58.09
79006;BME280;69202;45.498;-73.582;2023-08-12T06:06:45;100260.63;;;19.31;58.26
79006;BME280;69202;45.498;-73.582;2023-08-12T06:09:11;100203.72;;;18.96;58.16
79006;BME280;69202;45.498;-73.582;2023-08-12T06:11:37;100396.72;;;20.15;58.36
79006;BME280;69202;45.498;-73.582;2023-08-12T06:14:03;100397.25;;;20.02;58.38
79006;BME280;69202;45.498;-73.582;2023-08-12T06:16:29;100326.59;;;19.62;58.75
79006;BME280;69202;45.498;-73.582;2023-08-12T06:18:55;100310.84;;;19.42;59.16
79006;BME280;69202;45.498;-73.582;2023-08-12T06:21:21;100390.88;;;19.86;59.67
79006;BME280;69202;45.498;-73.582;2023-08-12T06:23:47;100361.75;;;19.75;59.96
79006;BME280;69202;45.498;-73.582;2023-08-12T06:26:12;100438.72;;;20.21;60.30
79006;BME280;69202;45.498;-73.582;2023-08-12T06:28:38;100441.19;;;20.17;60.81
79006;BME280;69202;45.498;-73.582;2023-08-12T06:31:04;100423.59;;;20.03;60.94
79006;BME280;69202;45.498;-73.582;2023-08-12T06:33:30;100367.41;;;19.58;62.03
79006;BME280;69202;45.498;-73.582;2023-08-12T06:35:56;100423.50;;;19.82;62.41
79006;BME280;69202;45.498;-73.582;2023-08-12T06:38:22;100488.94;;;20.11;63.15
79006;BME280;69202;45.498;-73.582;2023-08-12T06:40:48;100420.25;;;19.91;64.34
79006;BME280;69202;45.498;-73.582;2023-08-12T06:43:14;100300.94;;;19.30;63.27
79006;BME280;69202;45.498;-73.582;2023-08-12T06:45:40;100347.16;;;19.64;61.21
79006;BME280;69202;45.498;-73.582;2023-08-12T06:48:06;100261.09;;;19.13;61.36
79006;BME280;69202;45.498;-73.582;2023-08-12T06:50:32;100423.38;;;20.25;62.53
79006;BME280;69202;45.498;-73.582;2023-08-12T06:52:59;100335.16;;;19.80;63.77
79006;BME280;69202;45.498;-73.582;2023-08-12T06:55:25;100461.09;;;20.60;65.05
79006;BME280;69202;45.498;-73.582;2023-08-12T06:57:50;100247.19;;;19.29;65.49
79006;BME280;69202;45.498;-73.582;2023-08-12T07:00:16;100337.97;;;20.06;65.63
79006;BME280;69202;45.498;-73.582;2023-08-12T07:02:42;100452.91;;;20.75;65.55
79006;BME280;69202;45.498;-73.582;2023-08-12T07:05:08;100344.28;;;20.11;64.00
79006;BME280;69202;45.498;-73.582;2023-08-12T07:07:35;100402.25;;;20.40;62.01
79006;BME280;69202;45.498;-73.582;2023-08-12T07:10:01;100353.31;;;20.02;62.01
79006;BME280;69202;45.498;-73.582;2023-08-12T07:12:27;100323.09;;;19.81;63.27
79006;BME280;69202;45.498;-73.582;2023-08-12T07:14:56;100376.41;;;20.31;64.41
79006;BME280;69202;45.498;-73.582;2023-08-12T07:17:21;100441.88;;;20.70;65.43
79006;BME280;69202;45.498;-73.582;2023-08-12T07:19:47;100326.97;;;20.06;65.68
79006;BME280;69202;45.498;-73.582;2023-08-12T07:22:13;100307.75;;;20.01;65.60
79006;BME280;69202;45.498;-73.582;2023-08-12T07:24:39;100234.69;;;19.59;65.56
79006;BME280;69202;45.498;-73.582;2023-08-12T07:27:05;100395.16;;;20.60;65.24
79006;BME280;69202;45.498;-73.582;2023-08-12T07:29:31;100251.38;;;19.52;65.33
79006;BME280;69202;45.498;-73.582;2023-08-12T07:31:57;100433.66;;;20.80;64.41
79006;BME280;69202;45.498;-73.582;2023-08-12T07:34:22;100423.19;;;20.72;63.05
79006;BME280;69202;45.498;-73.582;2023-08-12T07:36:48;100265.69;;;19.59;62.44
79006;BME280;69202;45.498;-73.582;2023-08-12T07:39:14;100430.91;;;20.65;63.67
79006;BME280;69202;45.498;-73.582;2023-08-12T07:41:40;100361.31;;;20.13;64.65
79006;BME280;69202;45.498;-73.582;2023-08-12T07:44:06;100374.22;;;20.18;65.49
79006;BME280;69202;45.498;-73.582;2023-08-12T07:46:32;100310.97;;;19.67;65.88
79006;BME280;69202;45.498;-73.582;2023-08-12T07:48:58;100239.81;;;19.40;65.98
79006;BME280;69202;45.498;-73.582;2023-08-12T07:51:24;100385.22;;;20.28;65.93
79006;BME280;69202;45.498;-73.582;2023-08-12T07:53:50;100286.28;;;19.62;65.71
79006;BME280;69202;45.498;-73.582;2023-08-12T07:56:16;100289.00;;;19.67;65.87
79006;BME280;69202;45.498;-73.582;2023-08-12T07:58:42;100309.06;;;19.78;65.40
79006;BME280;69202;45.498;-73.582;2023-08-12T08:01:08;100455.63;;;20.80;63.80
79006;BME280;69202;45.498;-73.582;2023-08-12T08:03:34;100454.25;;;20.67;61.82
79006;BME280;69202;45.498;-73.582;2023-08-12T08:08:26;100460.56;;;20.73;63.75
79006;BME280;69202;45.498;-73.582;2023-08-12T08:10:52;100274.97;;;19.53;65.30
79006;BME280;69202;45.498;-73.582;2023-08-12T08:13:18;100377.53;;;20.25;65.00
79006;BME280;69202;45.498;-73.582;2023-08-12T08:15:44;100461.38;;;20.63;65.28
79006;BME280;69202;45.498;-73.582;2023-08-12T08:18:11;100435.47;;;20.29;66.05
79006;BME280;69202;45.498;-73.582;2023-08-12T08:20:36;100349.47;;;19.98;66.03
79006;BME280;69202;45.498;-73.582;2023-08-12T08:23:02;100415.44;;;20.38;66.09
79006;BME280;69202;45.498;-73.582;2023-08-12T08:25:28;100411.88;;;20.33;65.87
79006;BME280;69202;45.498;-73.582;2023-08-12T08:27:54;100424.81;;;20.53;65.67
79006;BME280;69202;45.498;-73.582;2023-08-12T08:30:20;100429.25;;;20.54;65.76
79006;BME280;69202;45.498;-73.582;2023-08-12T08:32:48;100418.78;;;20.61;65.62
79006;BME280;69202;45.498;-73.582;2023-08-12T08:35:14;100258.81;;;19.57;64.40
79006;BME280;69202;45.498;-73.582;2023-08-12T08:37:41;100326.06;;;19.75;62.55
79006;BME280;69202;45.498;-73.582;2023-08-12T08:40:07;100263.41;;;19.41;62.91
79006;BME280;69202;45.498;-73.582;2023-08-12T08:42:34;100450.63;;;20.52;64.33
79006;BME280;69202;45.498;-73.582;2023-08-12T08:45:01;100372.50;;;19.97;65.31
79006;BME280;69202;45.498;-73.582;2023-08-12T08:47:29;100433.28;;;20.41;65.83
79006;BME280;69202;45.498;-73.582;2023-08-12T08:49:57;100344.75;;;19.83;65.87
79006;BME280;69202;45.498;-73.582;2023-08-12T08:52:23;100343.63;;;19.74;66.16
79006;BME280;69202;45.498;-73.582;2023-08-12T08:54:50;100410.50;;;20.35;66.54
79006;BME280;69202;45.498;-73.582;2023-08-12T08:57:16;100332.91;;;19.62;65.92
79006;BME280;69202;45.498;-73.582;2023-08-12T08:59:42;100379.09;;;19.96;66.18
79006;BME280;69202;45.498;-73.582;2023-08-12T09:02:15;100416.25;;;20.34;66.22
79006;BME280;69202;45.498;-73.582;2023-08-12T09:04:46;100463.03;;;20.59;65.83
79006;BME280;69202;45.498;-73.582;2023-08-12T09:07:13;100513.91;;;20.87;65.75
79006;BME280;69202;45.498;-73.582;2023-08-12T09:09:45;100511.97;;;20.93;64.77
79006;BME280;69202;45.498;-73.582;2023-08-12T09:12:14;100474.88;;;20.65;62.42
79006;BME280;69202;45.498;-73.582;2023-08-12T09:14:41;100441.81;;;20.34;62.47
79006;BME280;69202;45.498;-73.582;2023-08-12T09:17:07;100485.56;;;20.61;63.34
79006;BME280;69202;45.498;-73.582;2023-08-12T09:19:33;100453.34;;;20.36;64.74
79006;BME280;69202;45.498;-73.582;2023-08-12T09:21:59;100320.00;;;19.63;65.70
79006;BME280;69202;45.498;-73.582;2023-08-12T09:24:26;100504.81;;;20.71;66.67
79006;BME280;69202;45.498;-73.582;2023-08-12T09:26:53;100437.94;;;20.30;67.11
79006;BME280;69202;45.498;-73.582;2023-08-12T09:29:29;100479.75;;;20.48;67.16
79006;BME280;69202;45.498;-73.582;2023-08-12T09:32:05;100489.69;;;20.54;67.12
79006;BME280;69202;45.498;-73.582;2023-08-12T09:34:32;100157.19;;;18.49;67.08
79006;BME280;69202;45.498;-73.582;2023-08-12T09:36:57;100459.06;;;20.30;67.10
79006;BME280;69202;45.498;-73.582;2023-08-12T09:39:23;100422.00;;;20.22;66.89
79006;BME280;69202;45.498;-73.582;2023-08-12T09:41:50;100495.19;;;20.64;64.96
79006;BME280;69202;45.498;-73.582;2023-08-12T09:44:16;100442.28;;;20.21;63.54
79006;BME280;69202;45.498;-73.582;2023-08-12T09:46:42;100401.06;;;19.96;64.29
79006;BME280;69202;45.498;-73.582;2023-08-12T09:49:08;100414.00;;;20.05;65.72
79006;BME280;69202;45.498;-73.582;2023-08-12T09:51:38;100448.63;;;20.27;66.75
79006;BME280;69202;45.498;-73.582;2023-08-12T09:54:06;100478.38;;;20.45;67.43
79006;BME280;69202;45.498;-73.582;2023-08-12T09:56:36;100502.31;;;20.55;67.12
79006;BME280;69202;45.498;-73.582;2023-08-12T09:59:05;100460.00;;;20.45;66.85
79006;BME280;69202;45.498;-73.582;2023-08-12T10:01:32;100397.47;;;20.00;66.60
79006;BME280;69202;45.498;-73.582;2023-08-12T10:03:58;100423.13;;;20.36;66.34
79006;BME280;69202;45.498;-73.582;2023-08-12T10:06:25;100434.16;;;20.46;66.03
79006;BME280;69202;45.498;-73.582;2023-08-12T10:08:52;100493.03;;;20.91;65.43
79006;BME280;69202;45.498;-73.582;2023-08-12T10:11:19;100310.47;;;19.80;65.25
79006;BME280;69202;45.498;-73.582;2023-08-12T10:13:47;100513.13;;;21.07;65.22
79006;BME280;69202;45.498;-73.582;2023-08-12T10:16:13;100480.91;;;20.92;64.85
79006;BME280;69202;45.498;-73.582;2023-08-12T10:18:40;100477.38;;;20.87;64.93
79006;BME280;69202;45.498;-73.582;2023-08-12T10:21:09;100386.94;;;20.44;64.52
79006;BME280;69202;45.498;-73.582;2023-08-12T10:23:36;100528.56;;;21.28;64.33
79006;BME280;69202;45.498;-73.582;2023-08-12T10:26:05;100339.06;;;20.20;64.26
79006;BME280;69202;45.498;-73.582;2023-08-12T10:28:32;100366.84;;;20.34;64.01
79006;BME280;69202;45.498;-73.582;2023-08-12T10:31:05;100392.41;;;20.50;64.00
79006;BME280;69202;45.498;-73.582;2023-08-12T10:33:38;100478.47;;;21.11;63.96
79006;BME280;69202;45.498;-73.582;2023-08-12T10:36:05;100453.44;;;21.02;63.04
79006;BME280;69202;45.498;-73.582;2023-08-12T10:38:32;100435.56;;;20.80;60.76
79006;BME280;69202;45.498;-73.582;2023-08-12T10:41:19;100341.56;;;20.37;59.50
79006;BME280;69202;45.498;-73.582;2023-08-12T10:43:58;100520.28;;;21.44;60.78
79006;BME280;69202;45.498;-73.582;2023-08-12T10:46:32;100529.38;;;21.49;61.89
79006;BME280;69202;45.498;-73.582;2023-08-12T10:51:48;100536.50;;;21.60;63.27
79006;BME280;69202;45.498;-73.582;2023-08-12T10:54:26;100537.31;;;21.66;63.72
79006;BME280;69202;45.498;-73.582;2023-08-12T10:57:07;100542.81;;;21.71;63.38
79006;BME280;69202;45.498;-73.582;2023-08-12T11:02:31;100563.44;;;21.84;62.92
79006;BME280;69202;45.498;-73.582;2023-08-12T11:05:08;100565.63;;;21.87;62.70
79006;BME280;69202;45.498;-73.582;2023-08-12T11:10:34;100469.09;;;21.22;62.58
79006;BME280;69202;45.498;-73.582;2023-08-12T11:13:02;100595.34;;;21.95;62.21
79006;BME280;69202;45.498;-73.582;2023-08-12T11:18:10;100503.50;;;21.35;58.48
79006;BME280;69202;45.498;-73.582;2023-08-12T11:20:37;100540.91;;;21.46;58.64
79006;BME280;69202;45.498;-73.582;2023-08-12T11:23:05;100425.13;;;20.66;60.13
79006;BME280;69202;45.498;-73.582;2023-08-12T11:25:33;100589.06;;;21.79;61.55
79006;BME280;69202;45.498;-73.582;2023-08-12T11:28:00;100462.25;;;20.89;62.67
79006;BME280;69202;45.498;-73.582;2023-08-12T11:30:27;100504.28;;;21.25;63.08
79006;BME280;69202;45.498;-73.582;2023-08-12T11:32:54;100565.13;;;21.70;63.44
79006;BME280;69202;45.498;-73.582;2023-08-12T11:35:21;100375.69;;;20.56;63.54
79006;BME280;69202;45.498;-73.582;2023-08-12T11:37:49;100491.66;;;21.24;63.39
79006;BME280;69202;45.498;-73.582;2023-08-12T11:40:16;100567.84;;;21.80;63.38
79006;BME280;69202;45.498;-73.582;2023-08-12T11:42:45;100552.16;;;21.75;62.96
79006;BME280;69202;45.498;-73.582;2023-08-12T11:45:11;100538.94;;;21.67;61.03
79006;BME280;69202;45.498;-73.582;2023-08-12T11:47:39;100588.19;;;21.94;59.08
79006;BME280;69202;45.498;-73.582;2023-08-12T11:50:06;100499.06;;;21.24;60.13
79006;BME280;69202;45.498;-73.582;2023-08-12T11:52:32;100547.22;;;21.62;61.98
79006;BME280;69202;45.498;-73.582;2023-08-12T11:54:59;100560.97;;;21.67;62.42
79006;BME280;69202;45.498;-73.582;2023-08-12T11:57:26;100411.66;;;20.80;63.10
79006;BME280;69202;45.498;-73.582;2023-08-12T12:00:03;100410.03;;;20.84;63.48
79006;BME280;69202;45.498;-73.582;2023-08-12T12:02:30;100494.44;;;21.29;63.24
79006;BME280;69202;45.498;-73.582;2023-08-12T12:04:56;100587.94;;;21.90;63.22
79006;BME280;69202;45.498;-73.582;2023-08-12T12:07:24;100531.56;;;21.68;62.94
79006;BME280;69202;45.498;-73.582;2023-08-12T12:09:54;100595.88;;;21.97;60.60
79006;BME280;69202;45.498;-73.582;2023-08-12T12:12:24;100590.41;;;21.92;59.20
79006;BME280;69202;45.498;-73.582;2023-08-12T12:14:53;100470.22;;;21.06;60.17
79006;BME280;69202;45.498;-73.582;2023-08-12T12:17:23;100419.63;;;20.71;61.25
79006;BME280;69202;45.498;-73.582;2023-08-12T12:19:55;100521.66;;;21.51;62.22
79006;BME280;69202;45.498;-73.582;2023-08-12T12:22:26;100446.31;;;21.07;62.82
79006;BME280;69202;45.498;-73.582;2023-08-12T12:24:53;100579.94;;;21.99;63.11
79006;BME280;69202;45.498;-73.582;2023-08-12T12:27:19;100544.72;;;21.76;63.03
79006;BME280;69202;45.498;-73.582;2023-08-12T12:29:45;100529.03;;;21.76;62.76
79006;BME280;69202;45.498;-73.582;2023-08-12T12:32:11;100561.50;;;22.00;62.49
79006;BME280;69202;45.498;-73.582;2023-08-12T12:34:38;100372.91;;;20.82;62.48
79006;BME280;69202;45.498;-73.582;2023-08-12T12:37:03;100480.09;;;21.53;62.33
79006;BME280;69202;45.498;-73.582;2023-08-12T12:39:29;100443.25;;;21.49;61.96
79006;BME280;69202;45.498;-73.582;2023-08-12T12:41:56;100406.16;;;21.31;61.25
79006;BME280;69202;45.498;-73.582;2023-08-12T12:44:27;100576.00;;;22.41;58.74